Terminal Aerodrome Forecast
Issued by NWS

Home | Current Version | Previous Version | Text Only | Print | Product List | Glossary On
Versions: 1 2 3 4 5 6 7 8 9 10 11 12 13 14 15 16 17 18 19 20 21 22
000
FTUS44 KHGX 291531 AAA
TAFUTS
TAF AMD
KUTS 291531Z 2916/3012 VRB05KT P6SM BKN015
     FM291700 21005KT P6SM BKN035
     FM292000 20008KT P6SM VCTS BKN050CB
     FM292300 19006KT P6SM SCT050
     FM300200 VRB03KT P6SM SCT250=

USA.gov is the U.S. government's official web portal to all federal, state and local government web resources and services.